sensor_id;sensor_type;location;lat;lon;timestamp;P1;durP1;ratioP1;P2;durP2;ratioP2
3083;SDS011;1552;51.952;7.618;2023-07-31T00:00:04;1.45;;;1.35;;
3083;SDS011;1552;51.952;7.618;2023-07-31T00:02:31;2.25;;;1.73;;
3083;SDS011;1552;51.952;7.618;2023-07-31T00:04:57;3.17;;;2.00;;
3083;SDS011;1552;51.952;7.618;2023-07-31T00:07:24;1.67;;;1.58;;
3083;SDS011;1552;51.952;7.618;2023-07-31T00:09:51;1.88;;;1.65;;
3083;SDS011;1552;51.952;7.618;2023-07-31T00:12:18;2.05;;;1.70;;
3083;SDS011;1552;51.952;7.618;2023-07-31T00:14:44;1.80;;;1.50;;
3083;SDS011;1552;51.952;7.618;2023-07-31T00:17:11;1.38;;;1.25;;
3083;SDS011;1552;51.952;7.618;2023-07-31T00:19:37;2.13;;;1.20;;
3083;SDS011;1552;51.952;7.618;2023-07-31T00:22:04;2.65;;;1.65;;
3083;SDS011;1552;51.952;7.618;2023-07-31T00:24:30;0.95;;;0.80;;
3083;SDS011;1552;51.952;7.618;2023-07-31T00:26:58;1.50;;;0.98;;
3083;SDS011;1552;51.952;7.618;2023-07-31T00:29:24;1.13;;;1.02;;
3083;SDS011;1552;51.952;7.618;2023-07-31T00:31:51;1.80;;;1.15;;
3083;SDS011;1552;51.952;7.618;2023-07-31T00:34:17;2.45;;;1.63;;
3083;SDS011;1552;51.952;7.618;2023-07-31T00:36:43;1.50;;;1.05;;
3083;SDS011;1552;51.952;7.618;2023-07-31T00:39:10;1.05;;;0.95;;
3083;SDS011;1552;51.952;7.618;2023-07-31T00:41:36;2.50;;;1.43;;
3083;SDS011;1552;51.952;7.618;2023-07-31T00:44:04;0.75;;;0.75;;
3083;SDS011;1552;51.952;7.618;2023-07-31T00:46:30;2.47;;;1.10;;
3083;SDS011;1552;51.952;7.618;2023-07-31T00:48:57;1.10;;;1.00;;
3083;SDS011;1552;51.952;7.618;2023-07-31T00:51:23;1.47;;;1.00;;
3083;SDS011;1552;51.952;7.618;2023-07-31T00:53:49;4.20;;;1.40;;
3083;SDS011;1552;51.952;7.618;2023-07-31T00:56:16;1.15;;;0.85;;
3083;SDS011;1552;51.952;7.618;2023-07-31T00:58:42;1.83;;;0.93;;
3083;SDS011;1552;51.952;7.618;2023-07-31T01:01:10;1.60;;;1.20;;
3083;SDS011;1552;51.952;7.618;2023-07-31T01:03:36;0.98;;;0.98;;
3083;SDS011;1552;51.952;7.618;2023-07-31T01:06:07;1.08;;;0.85;;
3083;SDS011;1552;51.952;7.618;2023-07-31T01:08:39;1.13;;;1.02;;
3083;SDS011;1552;51.952;7.618;2023-07-31T01:11:07;0.88;;;0.88;;
3083;SDS011;1552;51.952;7.618;2023-07-31T01:13:35;1.30;;;0.93;;
3083;SDS011;1552;51.952;7.618;2023-07-31T01:16:01;1.73;;;0.65;;
3083;SDS011;1552;51.952;7.618;2023-07-31T01:18:29;0.87;;;0.87;;
3083;SDS011;1552;51.952;7.618;2023-07-31T01:20:57;1.73;;;0.83;;
3083;SDS011;1552;51.952;7.618;2023-07-31T01:23:35;1.70;;;0.93;;
3083;SDS011;1552;51.952;7.618;2023-07-31T01:26:07;0.77;;;0.60;;
3083;SDS011;1552;51.952;7.618;2023-07-31T01:28:37;0.87;;;0.70;;
3083;SDS011;1552;51.952;7.618;2023-07-31T01:31:07;1.23;;;0.77;;
3083;SDS011;1552;51.952;7.618;2023-07-31T01:33:34;1.60;;;0.90;;
3083;SDS011;1552;51.952;7.618;2023-07-31T01:36:02;0.60;;;0.60;;
3083;SDS011;1552;51.952;7.618;2023-07-31T01:38:28;0.67;;;0.50;;
3083;SDS011;1552;51.952;7.618;2023-07-31T01:40:55;2.47;;;0.93;;
3083;SDS011;1552;51.952;7.618;2023-07-31T01:43:22;0.75;;;0.47;;
3083;SDS011;1552;51.952;7.618;2023-07-31T01:45:49;1.07;;;0.97;;
3083;SDS011;1552;51.952;7.618;2023-07-31T01:48:15;1.67;;;0.90;;
3083;SDS011;1552;51.952;7.618;2023-07-31T01:50:42;1.35;;;0.77;;
3083;SDS011;1552;51.952;7.618;2023-07-31T01:53:08;0.57;;;0.57;;
3083;SDS011;1552;51.952;7.618;2023-07-31T01:55:34;0.50;;;0.50;;
3083;SDS011;1552;51.952;7.618;2023-07-31T01:58:01;0.63;;;0.50;;
3083;SDS011;1552;51.952;7.618;2023-07-31T02:00:29;0.68;;;0.60;;
3083;SDS011;1552;51.952;7.618;2023-07-31T02:02:55;1.90;;;0.65;;
3083;SDS011;1552;51.952;7.618;2023-07-31T02:05:21;0.63;;;0.63;;
3083;SDS011;1552;51.952;7.618;2023-07-31T02:07:48;0.57;;;0.57;;
3083;SDS011;1552;51.952;7.618;2023-07-31T02:10:14;0.83;;;0.63;;
3083;SDS011;1552;51.952;7.618;2023-07-31T02:12:40;0.38;;;0.38;;
3083;SDS011;1552;51.952;7.618;2023-07-31T02:15:07;0.57;;;0.57;;
3083;SDS011;1552;51.952;7.618;2023-07-31T02:17:34;2.10;;;0.70;;
3083;SDS011;1552;51.952;7.618;2023-07-31T02:20:01;1.60;;;1.08;;
3083;SDS011;1552;51.952;7.618;2023-07-31T02:22:27;2.88;;;1.95;;
3083;SDS011;1552;51.952;7.618;2023-07-31T02:24:54;3.17;;;2.30;;
3083;SDS011;1552;51.952;7.618;2023-07-31T02:27:20;3.25;;;2.10;;
3083;SDS011;1552;51.952;7.618;2023-07-31T02:29:49;3.03;;;1.83;;
3083;SDS011;1552;51.952;7.618;2023-07-31T02:32:15;6.80;;;3.08;;
3083;SDS011;1552;51.952;7.618;2023-07-31T02:34:42;6.32;;;3.92;;
3083;SDS011;1552;51.952;7.618;2023-07-31T02:37:08;8.65;;;3.50;;
3083;SDS011;1552;51.952;7.618;2023-07-31T02:39:34;6.93;;;4.97;;
3083;SDS011;1552;51.952;7.618;2023-07-31T02:42:01;12.57;;;5.50;;
3083;SDS011;1552;51.952;7.618;2023-07-31T02:44:27;11.05;;;5.28;;
3083;SDS011;1552;51.952;7.618;2023-07-31T02:46:53;7.80;;;5.38;;
3083;SDS011;1552;51.952;7.618;2023-07-31T02:49:20;7.68;;;5.72;;
3083;SDS011;1552;51.952;7.618;2023-07-31T02:51:47;18.05;;;5.35;;
3083;SDS011;1552;51.952;7.618;2023-07-31T02:54:14;9.07;;;5.50;;
3083;SDS011;1552;51.952;7.618;2023-07-31T02:56:40;7.50;;;4.68;;
3083;SDS011;1552;51.952;7.618;2023-07-31T02:59:06;12.25;;;5.22;;
3083;SDS011;1552;51.952;7.618;2023-07-31T03:01:32;15.88;;;6.05;;
3083;SDS011;1552;51.952;7.618;2023-07-31T03:03:59;10.70;;;5.15;;
3083;SDS011;1552;51.952;7.618;2023-07-31T03:06:25;13.35;;;6.07;;
3083;SDS011;1552;51.952;7.618;2023-07-31T03:08:54;10.05;;;5.03;;
3083;SDS011;1552;51.952;7.618;2023-07-31T03:11:20;6.97;;;4.38;;
3083;SDS011;1552;51.952;7.618;2023-07-31T03:13:46;6.28;;;3.88;;
3083;SDS011;1552;51.952;7.618;2023-07-31T03:16:13;17.77;;;5.28;;
3083;SDS011;1552;51.952;7.618;2023-07-31T03:18:39;9.77;;;3.75;;
3083;SDS011;1552;51.952;7.618;2023-07-31T03:21:05;7.95;;;5.03;;
3083;SDS011;1552;51.952;7.618;2023-07-31T03:23:32;10.38;;;4.63;;
3083;SDS011;1552;51.952;7.618;2023-07-31T03:26:00;10.45;;;4.45;;
3083;SDS011;1552;51.952;7.618;2023-07-31T03:28:28;9.00;;;4.72;;
3083;SDS011;1552;51.952;7.618;2023-07-31T03:30:54;9.18;;;5.43;;
3083;SDS011;1552;51.952;7.618;2023-07-31T03:33:21;7.22;;;4.57;;
3083;SDS011;1552;51.952;7.618;2023-07-31T03:35:47;8.00;;;4.68;;
3083;SDS011;1552;51.952;7.618;2023-07-31T03:38:13;10.77;;;4.65;;
3083;SDS011;1552;51.952;7.618;2023-07-31T03:40:40;9.80;;;4.25;;
3083;SDS011;1552;51.952;7.618;2023-07-31T03:43:07;7.03;;;3.67;;
3083;SDS011;1552;51.952;7.618;2023-07-31T03:45:34;8.40;;;4.22;;
3083;SDS011;1552;51.952;7.618;2023-07-31T03:48:00;7.50;;;3.50;;
3083;SDS011;1552;51.952;7.618;2023-07-31T03:50:27;10.77;;;4.70;;
3083;SDS011;1552;51.952;7.618;2023-07-31T03:52:53;8.35;;;4.07;;
3083;SDS011;1552;51.952;7.618;2023-07-31T03:55:19;9.30;;;4.85;;
3083;SDS011;1552;51.952;7.618;2023-07-31T03:57:46;8.18;;;3.90;;
3083;SDS011;1552;51.952;7.618;2023-07-31T04:00:18;7.75;;;4.10;;
3083;SDS011;1552;51.952;7.618;2023-07-31T04:02:47;9.43;;;4.57;;
3083;SDS011;1552;51.952;7.618;2023-07-31T04:05:14;10.32;;;5.20;;
3083;SDS011;1552;51.952;7.618;2023-07-31T04:07:40;10.00;;;5.15;;
3083;SDS011;1552;51.952;7.618;2023-07-31T04:10:07;14.10;;;4.40;;
3083;SDS011;1552;51.952;7.618;2023-07-31T04:12:33;7.55;;;4.95;;
3083;SDS011;1552;51.952;7.618;2023-07-31T04:14:59;7.40;;;4.32;;
3083;SDS011;1552;51.952;7.618;2023-07-31T04:17:27;13.45;;;4.65;;
3083;SDS011;1552;51.952;7.618;2023-07-31T04:19:53;9.90;;;3.95;;
3083;SDS011;1552;51.952;7.618;2023-07-31T04:22:20;8.40;;;4.47;;
3083;SDS011;1552;51.952;7.618;2023-07-31T04:24:46;8.25;;;3.78;;
3083;SDS011;1552;51.952;7.618;2023-07-31T04:27:12;12.40;;;4.72;;
3083;SDS011;1552;51.952;7.618;2023-07-31T04:29:39;9.95;;;4.03;;
3083;SDS011;1552;51.952;7.618;2023-07-31T04:32:07;7.97;;;3.75;;
3083;SDS011;1552;51.952;7.618;2023-07-31T04:34:35;12.18;;;4.63;;
3083;SDS011;1552;51.952;7.618;2023-07-31T04:37:01;6.68;;;3.47;;
3083;SDS011;1552;51.952;7.618;2023-07-31T04:39:27;7.63;;;4.68;;
3083;SDS011;1552;51.952;7.618;2023-07-31T04:41:54;8.02;;;4.43;;
3083;SDS011;1552;51.952;7.618;2023-07-31T04:44:20;7.10;;;3.45;;
3083;SDS011;1552;51.952;7.618;2023-07-31T04:46:46;7.97;;;4.18;;
3083;SDS011;1552;51.952;7.618;2023-07-31T04:49:12;12.05;;;4.90;;
3083;SDS011;1552;51.952;7.618;2023-07-31T04:51:40;9.00;;;4.05;;
3083;SDS011;1552;51.952;7.618;2023-07-31T04:54:07;8.68;;;4.15;;
3083;SDS011;1552;51.952;7.618;2023-07-31T04:56:33;7.93;;;3.92;;
3083;SDS011;1552;51.952;7.618;2023-07-31T04:58:59;7.90;;;4.30;;
3083;SDS011;1552;51.952;7.618;2023-07-31T05:01:25;9.05;;;3.78;;
3083;SDS011;1552;51.952;7.618;2023-07-31T05:03:52;9.35;;;4.50;;
3083;SDS011;1552;51.952;7.618;2023-07-31T05:06:18;15.07;;;4.47;;
3083;SDS011;1552;51.952;7.618;2023-07-31T05:08:47;9.32;;;3.55;;
3083;SDS011;1552;51.952;7.618;2023-07-31T05:11:13;21.45;;;4.63;;
3083;SDS011;1552;51.952;7.618;2023-07-31T05:13:39;7.78;;;4.25;;
3083;SDS011;1552;51.952;7.618;2023-07-31T05:16:06;14.05;;;3.97;;
3083;SDS011;1552;51.952;7.618;2023-07-31T05:18:32;9.00;;;4.55;;
3083;SDS011;1552;51.952;7.618;2023-07-31T05:20:58;13.63;;;4.35;;
3083;SDS011;1552;51.952;7.618;2023-07-31T05:23:24;6.97;;;3.58;;
3083;SDS011;1552;51.952;7.618;2023-07-31T05:25:52;9.40;;;3.95;;
3083;SDS011;1552;51.952;7.618;2023-07-31T05:28:18;8.77;;;3.25;;
3083;SDS011;1552;51.952;7.618;2023-07-31T05:30:45;5.88;;;3.50;;
3083;SDS011;1552;51.952;7.618;2023-07-31T05:33:11;7.68;;;3.38;;
3083;SDS011;1552;51.952;7.618;2023-07-31T05:35:37;9.70;;;4.07;;
3083;SDS011;1552;51.952;7.618;2023-07-31T05:38:04;4.88;;;2.83;;
3083;SDS011;1552;51.952;7.618;2023-07-31T05:40:31;10.02;;;3.58;;
3083;SDS011;1552;51.952;7.618;2023-07-31T05:42:59;6.55;;;3.45;;
3083;SDS011;1552;51.952;7.618;2023-07-31T05:45:25;7.93;;;3.75;;
3083;SDS011;1552;51.952;7.618;2023-07-31T05:47:52;8.05;;;3.33;;
3083;SDS011;1552;51.952;7.618;2023-07-31T05:50:18;6.95;;;3.97;;
3083;SDS011;1552;51.952;7.618;2023-07-31T05:52:44;13.02;;;4.78;;
3083;SDS011;1552;51.952;7.618;2023-07-31T05:55:11;5.15;;;3.28;;
3083;SDS011;1552;51.952;7.618;2023-07-31T05:57:37;7.45;;;3.75;;
3083;SDS011;1552;51.952;7.618;2023-07-31T06:00:05;7.90;;;3.95;;
3083;SDS011;1552;51.952;7.618;2023-07-31T06:02:32;9.15;;;4.32;;
3083;SDS011;1552;51.952;7.618;2023-07-31T06:05:01;11.82;;;4.05;;
3083;SDS011;1552;51.952;7.618;2023-07-31T06:07:29;6.85;;;3.22;;
3083;SDS011;1552;51.952;7.618;2023-07-31T06:09:55;7.15;;;3.67;;
3083;SDS011;1552;51.952;7.618;2023-07-31T06:12:22;11.52;;;3.63;;
3083;SDS011;1552;51.952;7.618;2023-07-31T06:14:50;9.00;;;3.55;;
3083;SDS011;1552;51.952;7.618;2023-07-31T06:17:17;14.40;;;4.38;;
3083;SDS011;1552;51.952;7.618;2023-07-31T06:19:44;6.95;;;2.88;;
3083;SDS011;1552;51.952;7.618;2023-07-31T06:22:10;5.88;;;3.42;;
3083;SDS011;1552;51.952;7.618;2023-07-31T06:24:37;5.78;;;3.35;;
3083;SDS011;1552;51.952;7.618;2023-07-31T06:27:03;6.10;;;3.22;;
3083;SDS011;1552;51.952;7.618;2023-07-31T06:29:31;17.00;;;4.30;;
3083;SDS011;1552;51.952;7.618;2023-07-31T06:31:57;5.20;;;3.33;;
3083;SDS011;1552;51.952;7.618;2023-07-31T06:34:25;6.13;;;3.55;;
3083;SDS011;1552;51.952;7.618;2023-07-31T06:36:51;9.70;;;3.50;;
3083;SDS011;1552;51.952;7.618;2023-07-31T06:39:17;5.20;;;4.00;;
3083;SDS011;1552;51.952;7.618;2023-07-31T06:41:44;6.60;;;3.53;;
3083;SDS011;1552;51.952;7.618;2023-07-31T06:44:10;7.90;;;3.92;;
3083;SDS011;1552;51.952;7.618;2023-07-31T06:46:36;11.80;;;3.00;;
3083;SDS011;1552;51.952;7.618;2023-07-31T06:49:03;11.68;;;4.32;;
3083;SDS011;1552;51.952;7.618;2023-07-31T06:51:30;7.68;;;3.05;;
3083;SDS011;1552;51.952;7.618;2023-07-31T06:53:57;13.68;;;3.70;;
3083;SDS011;1552;51.952;7.618;2023-07-31T06:56:23;4.38;;;2.85;;
3083;SDS011;1552;51.952;7.618;2023-07-31T06:58:51;6.57;;;3.33;;
3083;SDS011;1552;51.952;7.618;2023-07-31T07:01:17;9.98;;;3.42;;
3083;SDS011;1552;51.952;7.618;2023-07-31T07:03:43;5.07;;;3.15;;
3083;SDS011;1552;51.952;7.618;2023-07-31T07:06:10;9.82;;;4.05;;
3083;SDS011;1552;51.952;7.618;2023-07-31T07:08:37;12.98;;;4.38;;
3083;SDS011;1552;51.952;7.618;2023-07-31T07:11:04;7.72;;;3.28;;
3083;SDS011;1552;51.952;7.618;2023-07-31T07:13:30;13.23;;;4.00;;
3083;SDS011;1552;51.952;7.618;2023-07-31T07:15:56;6.13;;;3.35;;
3083;SDS011;1552;51.952;7.618;2023-07-31T07:18:23;6.45;;;3.38;;
3083;SDS011;1552;51.952;7.618;2023-07-31T07:20:50;7.03;;;3.83;;
3083;SDS011;1552;51.952;7.618;2023-07-31T07:23:16;7.28;;;4.30;;
3083;SDS011;1552;51.952;7.618;2023-07-31T07:25:44;6.32;;;3.83;;
3083;SDS011;1552;51.952;7.618;2023-07-31T07:28:11;6.88;;;4.05;;
3083;SDS011;1552;51.952;7.618;2023-07-31T07:30:37;8.90;;;3.85;;
3083;SDS011;1552;51.952;7.618;2023-07-31T07:33:04;7.03;;;3.63;;
3083;SDS011;1552;51.952;7.618;2023-07-31T07:35:32;7.75;;;3.85;;
3083;SDS011;1552;51.952;7.618;2023-07-31T07:37:59;6.22;;;3.67;;
3083;SDS011;1552;51.952;7.618;2023-07-31T07:40:25;7.20;;;4.28;;
3083;SDS011;1552;51.952;7.618;2023-07-31T07:42:53;5.10;;;3.15;;
3083;SDS011;1552;51.952;7.618;2023-07-31T07:45:20;5.70;;;3.50;;
3083;SDS011;1552;51.952;7.618;2023-07-31T07:47:46;6.22;;;3.22;;
3083;SDS011;1552;51.952;7.618;2023-07-31T07:50:12;7.15;;;3.60;;
3083;SDS011;1552;51.952;7.618;2023-07-31T07:52:38;7.25;;;3.60;;
3083;SDS011;1552;51.952;7.618;2023-07-31T07:55:05;5.05;;;3.95;;
3083;SDS011;1552;51.952;7.618;2023-07-31T07:57:31;4.32;;;3.20;;
3083;SDS011;1552;51.952;7.618;2023-07-31T07:59:59;5.15;;;3.33;;
3083;SDS011;1552;51.952;7.618;2023-07-31T08:02:25;4.63;;;2.85;;
3083;SDS011;1552;51.952;7.618;2023-07-31T08:04:52;4.82;;;3.03;;
3083;SDS011;1552;51.952;7.618;2023-07-31T08:07:18;4.05;;;2.92;;
3083;SDS011;1552;51.952;7.618;2023-07-31T08:09:44;3.97;;;3.42;;
3083;SDS011;1552;51.952;7.618;2023-07-31T08:12:11;4.78;;;2.95;;
3083;SDS011;1552;51.952;7.618;2023-07-31T08:14:37;4.07;;;2.80;;
3083;SDS011;1552;51.952;7.618;2023-07-31T08:17:05;3.05;;;2.55;;
3083;SDS011;1552;51.952;7.618;2023-07-31T08:19:31;3.90;;;3.05;;
3083;SDS011;1552;51.952;7.618;2023-07-31T08:21:57;8.40;;;3.65;;
3083;SDS011;1552;51.952;7.618;2023-07-31T08:24:24;3.92;;;3.13;;
3083;SDS011;1552;51.952;7.618;2023-07-31T08:26:50;4.68;;;3.00;;
3083;SDS011;1552;51.952;7.618;2023-07-31T08:29:16;4.97;;;2.90;;
3083;SDS011;1552;51.952;7.618;2023-07-31T08:31:43;4.05;;;3.00;;
3083;SDS011;1552;51.952;7.618;2023-07-31T08:34:10;7.63;;;2.97;;
3083;SDS011;1552;51.952;7.618;2023-07-31T08:36:37;3.08;;;2.67;;
3083;SDS011;1552;51.952;7.618;2023-07-31T08:39:03;4.65;;;2.67;;
3083;SDS011;1552;51.952;7.618;2023-07-31T08:41:29;2.95;;;2.25;;
3083;SDS011;1552;51.952;7.618;2023-07-31T08:43:56;3.22;;;2.90;;
3083;SDS011;1552;51.952;7.618;2023-07-31T08:46:22;2.75;;;2.17;;
3083;SDS011;1552;51.952;7.618;2023-07-31T08:48:49;3.08;;;2.78;;
3083;SDS011;1552;51.952;7.618;2023-07-31T08:51:19;3.00;;;2.10;;
3083;SDS011;1552;51.952;7.618;2023-07-31T08:53:45;3.97;;;2.20;;
3083;SDS011;1552;51.952;7.618;2023-07-31T08:56:12;3.85;;;3.20;;
3083;SDS011;1552;51.952;7.618;2023-07-31T08:58:40;2.70;;;2.45;;
3083;SDS011;1552;51.952;7.618;2023-07-31T09:01:06;2.38;;;1.92;;
3083;SDS011;1552;51.952;7.618;2023-07-31T09:03:33;4.43;;;2.40;;
3083;SDS011;1552;51.952;7.618;2023-07-31T09:06:00;2.40;;;1.60;;
3083;SDS011;1552;51.952;7.618;2023-07-31T09:08:30;3.45;;;2.03;;
3083;SDS011;1552;51.952;7.618;2023-07-31T09:10:58;2.45;;;1.95;;
3083;SDS011;1552;51.952;7.618;2023-07-31T09:13:25;3.33;;;1.77;;
3083;SDS011;1552;51.952;7.618;2023-07-31T09:15:52;3.38;;;1.67;;
3083;SDS011;1552;51.952;7.618;2023-07-31T09:18:18;2.38;;;2.03;;
3083;SDS011;1552;51.952;7.618;2023-07-31T09:20:51;2.50;;;1.95;;
3083;SDS011;1552;51.952;7.618;2023-07-31T09:23:26;4.78;;;2.38;;
3083;SDS011;1552;51.952;7.618;2023-07-31T09:25:53;3.60;;;2.60;;
3083;SDS011;1552;51.952;7.618;2023-07-31T09:28:20;2.65;;;1.80;;
3083;SDS011;1552;51.952;7.618;2023-07-31T09:30:46;4.18;;;2.53;;
3083;SDS011;1552;51.952;7.618;2023-07-31T09:33:13;3.25;;;2.95;;
3083;SDS011;1552;51.952;7.618;2023-07-31T09:35:40;2.05;;;1.80;;
3083;SDS011;1552;51.952;7.618;2023-07-31T09:38:07;2.35;;;2.15;;
3083;SDS011;1552;51.952;7.618;2023-07-31T09:40:34;3.22;;;2.20;;
3083;SDS011;1552;51.952;7.618;2023-07-31T09:43:03;4.43;;;2.67;;
3083;SDS011;1552;51.952;7.618;2023-07-31T09:45:30;2.30;;;1.90;;
3083;SDS011;1552;51.952;7.618;2023-07-31T09:47:56;3.45;;;1.80;;
3083;SDS011;1552;51.952;7.618;2023-07-31T09:50:23;3.05;;;2.42;;
3083;SDS011;1552;51.952;7.618;2023-07-31T09:52:50;2.80;;;2.00;;
3083;SDS011;1552;51.952;7.618;2023-07-31T09:55:17;3.42;;;2.10;;
3083;SDS011;1552;51.952;7.618;2023-07-31T09:57:45;2.08;;;1.92;;
3083;SDS011;1552;51.952;7.618;2023-07-31T10:00:14;2.53;;;2.33;;
3083;SDS011;1552;51.952;7.618;2023-07-31T10:02:41;1.90;;;1.70;;
3083;SDS011;1552;51.952;7.618;2023-07-31T10:05:07;2.78;;;2.33;;
3083;SDS011;1552;51.952;7.618;2023-07-31T10:07:36;3.13;;;2.30;;
3083;SDS011;1552;51.952;7.618;2023-07-31T10:10:02;2.75;;;2.40;;
3083;SDS011;1552;51.952;7.618;2023-07-31T10:12:30;2.28;;;2.03;;
3083;SDS011;1552;51.952;7.618;2023-07-31T10:14:57;3.50;;;2.30;;
3083;SDS011;1552;51.952;7.618;2023-07-31T10:17:27;2.45;;;1.52;;
3083;SDS011;1552;51.952;7.618;2023-07-31T10:19:54;2.88;;;1.85;;
3083;SDS011;1552;51.952;7.618;2023-07-31T10:22:22;6.88;;;1.95;;
3083;SDS011;1552;51.952;7.618;2023-07-31T10:24:48;2.50;;;1.83;;
3083;SDS011;1552;51.952;7.618;2023-07-31T10:27:16;3.97;;;2.25;;
3083;SDS011;1552;51.952;7.618;2023-07-31T10:29:43;1.98;;;1.73;;
3083;SDS011;1552;51.952;7.618;2023-07-31T10:32:10;2.80;;;2.17;;
3083;SDS011;1552;51.952;7.618;2023-07-31T10:34:40;2.47;;;1.80;;
3083;SDS011;1552;51.952;7.618;2023-07-31T10:40:00;2.60;;;1.85;;
3083;SDS011;1552;51.952;7.618;2023-07-31T10:42:27;2.45;;;1.92;;
3083;SDS011;1552;51.952;7.618;2023-07-31T10:44:55;3.05;;;2.25;;
3083;SDS011;1552;51.952;7.618;2023-07-31T10:47:22;2.92;;;2.20;;
3083;SDS011;1552;51.952;7.618;2023-07-31T10:49:50;4.30;;;2.08;;
3083;SDS011;1552;51.952;7.618;2023-07-31T10:52:19;2.72;;;2.50;;
3083;SDS011;1552;51.952;7.618;2023-07-31T10:54:48;2.92;;;2.58;;
3083;SDS011;1552;51.952;7.618;2023-07-31T10:57:19;3.70;;;1.88;;
3083;SDS011;1552;51.952;7.618;2023-07-31T10:59:45;2.60;;;2.40;;
3083;SDS011;1552;51.952;7.618;2023-07-31T11:02:19;2.30;;;2.10;;
3083;SDS011;1552;51.952;7.618;2023-07-31T11:04:58;2.97;;;2.72;;
3083;SDS011;1552;51.952;7.618;2023-07-31T11:07:45;2.85;;;2.00;;
3083;SDS011;1552;51.952;7.618;2023-07-31T11:10:12;5.07;;;2.42;;
3083;SDS011;1552;51.952;7.618;2023-07-31T11:12:41;5.70;;;3.17;;
3083;SDS011;1552;51.952;7.618;2023-07-31T11:15:08;2.45;;;2.22;;
3083;SDS011;1552;51.952;7.618;2023-07-31T11:17:38;3.05;;;2.38;;
3083;SDS011;1552;51.952;7.618;2023-07-31T11:20:06;2.78;;;2.58;;
3083;SDS011;1552;51.952;7.618;2023-07-31T11:22:32;3.88;;;3.08;;
3083;SDS011;1552;51.952;7.618;2023-07-31T11:24:59;4.13;;;2.85;;
3083;SDS011;1552;51.952;7.618;2023-07-31T11:27:27;4.85;;;2.47;;
3083;SDS011;1552;51.952;7.618;2023-07-31T11:29:53;4.20;;;2.60;;
3083;SDS011;1552;51.952;7.618;2023-07-31T11:32:19;3.38;;;2.80;;
3083;SDS011;1552;51.952;7.618;2023-07-31T11:34:52;3.70;;;2.45;;
3083;SDS011;1552;51.952;7.618;2023-07-31T11:37:20;2.15;;;1.95;;
3083;SDS011;1552;51.952;7.618;2023-07-31T11:39:58;3.70;;;2.60;;
3083;SDS011;1552;51.952;7.618;2023-07-31T11:42:24;10.32;;;2.83;;
3083;SDS011;1552;51.952;7.618;2023-07-31T11:44:50;2.58;;;2.20;;
3083;SDS011;1552;51.952;7.618;2023-07-31T11:47:17;3.72;;;2.45;;
3083;SDS011;1552;51.952;7.618;2023-07-31T11:49:43;6.40;;;3.60;;
3083;SDS011;1552;51.952;7.618;2023-07-31T11:52:09;5.40;;;3.35;;
3083;SDS011;1552;51.952;7.618;2023-07-31T11:54:37;3.30;;;2.85;;
3083;SDS011;1552;51.952;7.618;2023-07-31T11:57:04;16.23;;;3.75;;
3083;SDS011;1552;51.952;7.618;2023-07-31T11:59:30;4.82;;;3.60;;
3083;SDS011;1552;51.952;7.618;2023-07-31T12:01:57;6.18;;;3.80;;
3083;SDS011;1552;51.952;7.618;2023-07-31T12:04:24;5.20;;;4.30;;
3083;SDS011;1552;51.952;7.618;2023-07-31T12:06:52;4.93;;;3.58;;
3083;SDS011;1552;51.952;7.618;2023-07-31T12:09:18;6.80;;;4.22;;
3083;SDS011;1552;51.952;7.618;2023-07-31T12:11:47;6.65;;;4.28;;
3083;SDS011;1552;51.952;7.618;2023-07-31T12:14:24;4.95;;;4.38;;
3083;SDS011;1552;51.952;7.618;2023-07-31T12:16:54;5.05;;;3.83;;
3083;SDS011;1552;51.952;7.618;2023-07-31T12:19:20;5.72;;;4.35;;
3083;SDS011;1552;51.952;7.618;2023-07-31T12:21:47;5.50;;;4.30;;
3083;SDS011;1552;51.952;7.618;2023-07-31T12:24:13;5.63;;;3.55;;
3083;SDS011;1552;51.952;7.618;2023-07-31T12:26:39;5.65;;;4.35;;
3083;SDS011;1552;51.952;7.618;2023-07-31T12:29:08;4.18;;;3.75;;
3083;SDS011;1552;51.952;7.618;2023-07-31T12:31:34;5.20;;;3.28;;
3083;SDS011;1552;51.952;7.618;2023-07-31T12:34:01;7.75;;;3.40;;
3083;SDS011;1552;51.952;7.618;2023-07-31T12:36:28;3.70;;;2.90;;
3083;SDS011;1552;51.952;7.618;2023-07-31T12:38:57;5.63;;;3.03;;
3083;SDS011;1552;51.952;7.618;2023-07-31T12:41:23;3.88;;;2.78;;
3083;SDS011;1552;51.952;7.618;2023-07-31T12:43:50;2.83;;;2.55;;
3083;SDS011;1552;51.952;7.618;2023-07-31T12:46:18;4.03;;;3.20;;
3083;SDS011;1552;51.952;7.618;2023-07-31T12:48:44;3.88;;;2.90;;
3083;SDS011;1552;51.952;7.618;2023-07-31T12:51:10;6.45;;;3.10;;
3083;SDS011;1552;51.952;7.618;2023-07-31T12:53:36;3.38;;;2.83;;
3083;SDS011;1552;51.952;7.618;2023-07-31T12:56:03;3.80;;;3.25;;
3083;SDS011;1552;51.952;7.618;2023-07-31T12:58:29;4.05;;;3.05;;
3083;SDS011;1552;51.952;7.618;2023-07-31T13:00:56;5.82;;;3.45;;
3083;SDS011;1552;51.952;7.618;2023-07-31T13:03:24;3.25;;;2.72;;
3083;SDS011;1552;51.952;7.618;2023-07-31T13:05:50;11.35;;;3.17;;
3083;SDS011;1552;51.952;7.618;2023-07-31T13:08:17;3.50;;;2.70;;
3083;SDS011;1552;51.952;7.618;2023-07-31T13:10:43;3.40;;;2.97;;
3083;SDS011;1552;51.952;7.618;2023-07-31T13:13:10;2.42;;;2.22;;
3083;SDS011;1552;51.952;7.618;2023-07-31T13:15:36;4.18;;;2.67;;
3083;SDS011;1552;51.952;7.618;2023-07-31T13:18:02;2.45;;;2.25;;
3083;SDS011;1552;51.952;7.618;2023-07-31T13:20:30;3.17;;;2.88;;
3083;SDS011;1552;51.952;7.618;2023-07-31T13:22:56;5.97;;;2.83;;
3083;SDS011;1552;51.952;7.618;2023-07-31T13:25:23;3.25;;;2.78;;
3083;SDS011;1552;51.952;7.618;2023-07-31T13:27:49;3.63;;;2.50;;
3083;SDS011;1552;51.952;7.618;2023-07-31T13:30:15;3.90;;;2.45;;
3083;SDS011;1552;51.952;7.618;2023-07-31T13:32:42;4.25;;;2.72;;
3083;SDS011;1552;51.952;7.618;2023-07-31T13:35:08;2.90;;;2.30;;
3083;SDS011;1552;51.952;7.618;2023-07-31T13:37:37;3.28;;;2.97;;
3083;SDS011;1552;51.952;7.618;2023-07-31T13:40:04;3.42;;;3.08;;
3083;SDS011;1552;51.952;7.618;2023-07-31T13:42:31;4.18;;;3.42;;
3083;SDS011;1552;51.952;7.618;2023-07-31T13:44:57;5.55;;;3.17;;
3083;SDS011;1552;51.952;7.618;2023-07-31T13:47:23;4.30;;;3.00;;
3083;SDS011;1552;51.952;7.618;2023-07-31T13:49:50;4.28;;;3.10;;
3083;SDS011;1552;51.952;7.618;2023-07-31T13:52:16;5.88;;;3.67;;
3083;SDS011;1552;51.952;7.618;2023-07-31T13:54:44;6.18;;;2.75;;
3083;SDS011;1552;51.952;7.618;2023-07-31T13:57:10;4.45;;;3.15;;
3083;SDS011;1552;51.952;7.618;2023-07-31T13:59:36;5.03;;;3.13;;
3083;SDS011;1552;51.952;7.618;2023-07-31T14:02:03;4.30;;;2.75;;
3083;SDS011;1552;51.952;7.618;2023-07-31T14:04:29;3.53;;;2.67;;
3083;SDS011;1552;51.952;7.618;2023-07-31T14:06:56;4.70;;;2.95;;
3083;SDS011;1552;51.952;7.618;2023-07-31T14:09:22;4.80;;;3.15;;
3083;SDS011;1552;51.952;7.618;2023-07-31T14:11:50;4.22;;;3.03;;
3083;SDS011;1552;51.952;7.618;2023-07-31T14:14:16;4.88;;;3.20;;
3083;SDS011;1552;51.952;7.618;2023-07-31T14:16:43;3.58;;;2.40;;
3083;SDS011;1552;51.952;7.618;2023-07-31T14:19:09;3.17;;;2.88;;
3083;SDS011;1552;51.952;7.618;2023-07-31T14:21:36;4.45;;;2.50;;
3083;SDS011;1552;51.952;7.618;2023-07-31T14:24:02;3.30;;;2.42;;
3083;SDS011;1552;51.952;7.618;2023-07-31T14:26:29;2.78;;;2.40;;
3083;SDS011;1552;51.952;7.618;2023-07-31T14:28:56;4.95;;;3.22;;
3083;SDS011;1552;51.952;7.618;2023-07-31T14:31:23;3.60;;;2.40;;
3083;SDS011;1552;51.952;7.618;2023-07-31T14:33:49;4.13;;;2.40;;
3083;SDS011;1552;51.952;7.618;2023-07-31T14:36:15;6.20;;;2.33;;
3083;SDS011;1552;51.952;7.618;2023-07-31T14:38:42;6.57;;;2.35;;
3083;SDS011;1552;51.952;7.618;2023-07-31T14:41:08;4.05;;;2.38;;
3083;SDS011;1552;51.952;7.618;2023-07-31T14:43:34;3.03;;;2.65;;
3083;SDS011;1552;51.952;7.618;2023-07-31T14:46:02;3.30;;;2.38;;
3083;SDS011;1552;51.952;7.618;2023-07-31T14:48:28;2.80;;;2.50;;
3083;SDS011;1552;51.952;7.618;2023-07-31T14:50:55;3.42;;;2.78;;
3083;SDS011;1552;51.952;7.618;2023-07-31T14:53:21;4.60;;;3.35;;
3083;SDS011;1552;51.952;7.618;2023-07-31T14:55:48;5.47;;;3.70;;
3083;SDS011;1552;51.952;7.618;2023-07-31T14:58:14;4.53;;;3.35;;
3083;SDS011;1552;51.952;7.618;2023-07-31T15:00:42;3.47;;;2.47;;
3083;SDS011;1552;51.952;7.618;2023-07-31T15:03:09;3.15;;;2.78;;
3083;SDS011;1552;51.952;7.618;2023-07-31T15:05:36;4.82;;;3.95;;
3083;SDS011;1552;51.952;7.618;2023-07-31T15:08:02;3.00;;;2.53;;
3083;SDS011;1552;51.952;7.618;2023-07-31T15:10:29;5.55;;;3.90;;
3083;SDS011;1552;51.952;7.618;2023-07-31T15:12:55;5.75;;;3.45;;
3083;SDS011;1552;51.952;7.618;2023-07-31T15:15:21;6.68;;;4.30;;